sensor_id;sensor_type;location;lat;lon;timestamp;pressure;altitude;pressure_sealevel;temperature;humidity
10668;BME280;5382;42.136;24.796;2023-02-23T00:01:48;99868.50;;;8.35;100.00
10668;BME280;5382;42.136;24.796;2023-02-23T00:04:15;99866.25;;;8.43;100.00
10668;BME280;5382;42.136;24.796;2023-02-23T00:06:43;99853.19;;;8.27;100.00
10668;BME280;5382;42.136;24.796;2023-02-23T00:09:10;99881.16;;;8.44;100.00
10668;BME280;5382;42.136;24.796;2023-02-23T00:11:48;99858.16;;;8.32;100.00
10668;BME280;5382;42.136;24.796;2023-02-23T00:14:15;99870.09;;;8.38;100.00
10668;BME280;5382;42.136;24.796;2023-02-23T00:16:42;99873.41;;;8.41;100.00
10668;BME280;5382;42.136;24.796;2023-02-23T00:19:11;99862.69;;;8.44;100.00
10668;BME280;5382;42.136;24.796;2023-02-23T00:21:39;99877.16;;;8.51;100.00
10668;BME280;5382;42.136;24.796;2023-02-23T00:24:08;99876.22;;;8.52;100.00
10668;BME280;5382;42.136;24.796;2023-02-23T00:26:38;99869.25;;;8.37;100.00
10668;BME280;5382;42.136;24.796;2023-02-23T00:29:12;99868.03;;;8.28;100.00
10668;BME280;5382;42.136;24.796;2023-02-23T00:31:41;99862.97;;;8.25;100.00
10668;BME280;5382;42.136;24.796;2023-02-23T00:34:10;99870.19;;;8.36;100.00
10668;BME280;5382;42.136;24.796;2023-02-23T00:36:38;99885.28;;;8.34;100.00
10668;BME280;5382;42.136;24.796;2023-02-23T00:39:07;99866.56;;;8.24;100.00
10668;BME280;5382;42.136;24.796;2023-02-23T00:41:43;99865.50;;;8.27;100.00
10668;BME280;5382;42.136;24.796;2023-02-23T00:44:12;99874.91;;;8.31;100.00
10668;BME280;5382;42.136;24.796;2023-02-23T00:46:41;99877.75;;;8.42;100.00
10668;BME280;5382;42.136;24.796;2023-02-23T00:49:10;99878.53;;;8.44;100.00
10668;BME280;5382;42.136;24.796;2023-02-23T00:51:37;99878.53;;;8.44;100.00
10668;BME280;5382;42.136;24.796;2023-02-23T00:54:04;99875.19;;;8.55;100.00
10668;BME280;5382;42.136;24.796;2023-02-23T00:56:32;99871.88;;;8.51;100.00
10668;BME280;5382;42.136;24.796;2023-02-23T00:58:58;99873.03;;;8.47;100.00
10668;BME280;5382;42.136;24.796;2023-02-23T01:01:27;99866.34;;;8.27;100.00
10668;BME280;5382;42.136;24.796;2023-02-23T01:03:55;99870.19;;;8.36;100.00
10668;BME280;5382;42.136;24.796;2023-02-23T01:06:22;99868.59;;;8.34;100.00
10668;BME280;5382;42.136;24.796;2023-02-23T01:08:50;99882.66;;;8.34;100.00
10668;BME280;5382;42.136;24.796;2023-02-23T01:11:23;99867.66;;;8.20;100.00
10668;BME280;5382;42.136;24.796;2023-02-23T01:13:53;99886.22;;;8.33;100.00
10668;BME280;5382;42.136;24.796;2023-02-23T01:16:25;99879.06;;;8.35;100.00
10668;BME280;5382;42.136;24.796;2023-02-23T01:18:55;99858.94;;;8.20;100.00
10668;BME280;5382;42.136;24.796;2023-02-23T01:21:24;99880.94;;;8.33;100.00
10668;BME280;5382;42.136;24.796;2023-02-23T01:23:52;99882.44;;;8.37;100.00
10668;BME280;5382;42.136;24.796;2023-02-23T01:26:21;99884.25;;;8.37;100.00
10668;BME280;5382;42.136;24.796;2023-02-23T01:28:52;99883.97;;;8.27;100.00
10668;BME280;5382;42.136;24.796;2023-02-23T01:31:19;99880.75;;;8.07;100.00
10668;BME280;5382;42.136;24.796;2023-02-23T01:33:47;99884.16;;;8.09;100.00
10668;BME280;5382;42.136;24.796;2023-02-23T01:36:15;99885.59;;;8.01;100.00
10668;BME280;5382;42.136;24.796;2023-02-23T01:38:43;99870.06;;;7.96;100.00
10668;BME280;5382;42.136;24.796;2023-02-23T01:41:10;99889.91;;;7.88;100.00
10668;BME280;5382;42.136;24.796;2023-02-23T01:43:56;99885.94;;;7.95;100.00
10668;BME280;5382;42.136;24.796;2023-02-23T01:46:23;99882.84;;;7.74;100.00
10668;BME280;5382;42.136;24.796;2023-02-23T01:48:50;99868.25;;;7.68;100.00
10668;BME280;5382;42.136;24.796;2023-02-23T01:51:24;99874.34;;;7.69;100.00
10668;BME280;5382;42.136;24.796;2023-02-23T01:53:56;99891.88;;;7.84;100.00
10668;BME280;5382;42.136;24.796;2023-02-23T01:56:26;99864.84;;;7.66;100.00
10668;BME280;5382;42.136;24.796;2023-02-23T01:58:56;99893.84;;;7.80;100.00
10668;BME280;5382;42.136;24.796;2023-02-23T02:01:24;99899.00;;;7.68;100.00
10668;BME280;5382;42.136;24.796;2023-02-23T02:03:56;99884.81;;;7.70;100.00
10668;BME280;5382;42.136;24.796;2023-02-23T02:06:26;99874.47;;;7.67;100.00
10668;BME280;5382;42.136;24.796;2023-02-23T02:08:58;99891.00;;;7.69;100.00
10668;BME280;5382;42.136;24.796;2023-02-23T02:11:31;99897.31;;;7.81;100.00
10668;BME280;5382;42.136;24.796;2023-02-23T02:14:03;99892.63;;;7.86;100.00
10668;BME280;5382;42.136;24.796;2023-02-23T02:16:43;99890.91;;;7.71;100.00
10668;BME280;5382;42.136;24.796;2023-02-23T02:22:39;99898.31;;;7.64;100.00
10668;BME280;5382;42.136;24.796;2023-02-23T02:25:30;99901.97;;;7.47;100.00
10668;BME280;5382;42.136;24.796;2023-02-23T02:28:29;99897.56;;;7.48;100.00
10668;BME280;5382;42.136;24.796;2023-02-23T02:37:15;99905.00;;;7.55;100.00
10668;BME280;5382;42.136;24.796;2023-02-23T02:39:50;99900.69;;;7.54;100.00
10668;BME280;5382;42.136;24.796;2023-02-23T02:42:49;99890.94;;;7.40;100.00
10668;BME280;5382;42.136;24.796;2023-02-23T02:45:23;99905.47;;;7.48;100.00
10668;BME280;5382;42.136;24.796;2023-02-23T02:47:55;99907.63;;;7.55;100.00
10668;BME280;5382;42.136;24.796;2023-02-23T02:50:29;99883.75;;;7.44;100.00
10668;BME280;5382;42.136;24.796;2023-02-23T02:53:03;99902.75;;;7.49;100.00
10668;BME280;5382;42.136;24.796;2023-02-23T02:55:34;99905.13;;;7.38;100.00
10668;BME280;5382;42.136;24.796;2023-02-23T02:58:05;99876.28;;;7.06;100.00
10668;BME280;5382;42.136;24.796;2023-02-23T03:00:37;99914.38;;;7.15;100.00
10668;BME280;5382;42.136;24.796;2023-02-23T03:03:30;99895.94;;;7.15;100.00
10668;BME280;5382;42.136;24.796;2023-02-23T03:06:15;99925.47;;;7.36;100.00
10668;BME280;5382;42.136;24.796;2023-02-23T03:09:07;99911.28;;;7.38;100.00
10668;BME280;5382;42.136;24.796;2023-02-23T03:12:06;99918.66;;;7.32;100.00
10668;BME280;5382;42.136;24.796;2023-02-23T03:14:57;99925.50;;;7.04;100.00
10668;BME280;5382;42.136;24.796;2023-02-23T03:17:45;99922.94;;;7.18;100.00
10668;BME280;5382;42.136;24.796;2023-02-23T03:20:39;99918.97;;;7.11;100.00
10668;BME280;5382;42.136;24.796;2023-02-23T03:23:29;99929.44;;;6.97;100.00
10668;BME280;5382;42.136;24.796;2023-02-23T03:26:23;99907.13;;;6.88;100.00
10668;BME280;5382;42.136;24.796;2023-02-23T03:29:15;99887.97;;;6.70;100.00
10668;BME280;5382;42.136;24.796;2023-02-23T03:32:06;99935.19;;;7.04;100.00
10668;BME280;5382;42.136;24.796;2023-02-23T03:34:57;99932.13;;;7.11;100.00
10668;BME280;5382;42.136;24.796;2023-02-23T03:37:48;99937.59;;;7.22;100.00
10668;BME280;5382;42.136;24.796;2023-02-23T03:40:38;99924.44;;;7.22;100.00
10668;BME280;5382;42.136;24.796;2023-02-23T03:43:30;99922.63;;;7.09;100.00
10668;BME280;5382;42.136;24.796;2023-02-23T03:46:16;99929.84;;;7.05;100.00
10668;BME280;5382;42.136;24.796;2023-02-23T03:49:03;99933.84;;;6.96;100.00
10668;BME280;5382;42.136;24.796;2023-02-23T03:51:52;99942.41;;;7.00;100.00
10668;BME280;5382;42.136;24.796;2023-02-23T03:54:44;99944.88;;;7.03;100.00
10668;BME280;5382;42.136;24.796;2023-02-23T03:57:30;99943.16;;;7.02;100.00
10668;BME280;5382;42.136;24.796;2023-02-23T04:00:22;99927.25;;;6.89;100.00
10668;BME280;5382;42.136;24.796;2023-02-23T04:03:10;99932.81;;;6.83;100.00
10668;BME280;5382;42.136;24.796;2023-02-23T04:05:57;99932.16;;;6.80;100.00
10668;BME280;5382;42.136;24.796;2023-02-23T04:08:42;99947.84;;;6.81;100.00
10668;BME280;5382;42.136;24.796;2023-02-23T04:11:29;99945.91;;;6.85;100.00
10668;BME280;5382;42.136;24.796;2023-02-23T04:14:18;99938.78;;;6.87;100.00
10668;BME280;5382;42.136;24.796;2023-02-23T04:16:47;99939.09;;;6.96;100.00
10668;BME280;5382;42.136;24.796;2023-02-23T04:19:13;99940.47;;;6.88;100.00
10668;BME280;5382;42.136;24.796;2023-02-23T04:21:40;99939.28;;;6.93;100.00
10668;BME280;5382;42.136;24.796;2023-02-23T04:24:08;99935.22;;;6.88;100.00
10668;BME280;5382;42.136;24.796;2023-02-23T04:26:35;99935.22;;;6.88;100.00
10668;BME280;5382;42.136;24.796;2023-02-23T04:29:02;99943.25;;;7.01;100.00
10668;BME280;5382;42.136;24.796;2023-02-23T04:31:29;99933.41;;;6.88;100.00
10668;BME280;5382;42.136;24.796;2023-02-23T04:33:57;99943.88;;;6.90;100.00
10668;BME280;5382;42.136;24.796;2023-02-23T04:36:24;99945.56;;;6.91;100.00
10668;BME280;5382;42.136;24.796;2023-02-23T04:38:51;99951.91;;;7.03;100.00
10668;BME280;5382;42.136;24.796;2023-02-23T04:41:18;99954.13;;;7.10;100.00
10668;BME280;5382;42.136;24.796;2023-02-23T04:43:44;99953.34;;;7.08;100.00
10668;BME280;5382;42.136;24.796;2023-02-23T04:46:11;99958.25;;;7.14;100.00
10668;BME280;5382;42.136;24.796;2023-02-23T04:48:38;99950.78;;;7.07;100.00
10668;BME280;5382;42.136;24.796;2023-02-23T04:51:06;99954.44;;;7.04;100.00
10668;BME280;5382;42.136;24.796;2023-02-23T04:53:34;99962.19;;;6.91;100.00
10668;BME280;5382;42.136;24.796;2023-02-23T04:56:00;99947.75;;;6.98;100.00
10668;BME280;5382;42.136;24.796;2023-02-23T04:58:28;99955.16;;;7.08;100.00
10668;BME280;5382;42.136;24.796;2023-02-23T05:01:03;99951.63;;;7.07;100.00
10668;BME280;5382;42.136;24.796;2023-02-23T05:03:29;99944.53;;;6.93;100.00
10668;BME280;5382;42.136;24.796;2023-02-23T05:05:56;99948.44;;;6.86;100.00
10668;BME280;5382;42.136;24.796;2023-02-23T05:08:24;99973.28;;;6.81;100.00
10668;BME280;5382;42.136;24.796;2023-02-23T05:10:51;99970.91;;;6.60;100.00
10668;BME280;5382;42.136;24.796;2023-02-23T05:13:18;99970.25;;;6.57;100.00
10668;BME280;5382;42.136;24.796;2023-02-23T05:15:45;99942.31;;;6.22;100.00
10668;BME280;5382;42.136;24.796;2023-02-23T05:18:12;99986.66;;;6.44;100.00
10668;BME280;5382;42.136;24.796;2023-02-23T05:20:41;99986.91;;;6.40;100.00
10668;BME280;5382;42.136;24.796;2023-02-23T05:23:09;99986.88;;;6.24;100.00
10668;BME280;5382;42.136;24.796;2023-02-23T05:25:38;99988.59;;;6.25;100.00
10668;BME280;5382;42.136;24.796;2023-02-23T05:28:05;99993.38;;;6.17;100.00
10668;BME280;5382;42.136;24.796;2023-02-23T05:30:31;99999.50;;;6.17;100.00
10668;BME280;5382;42.136;24.796;2023-02-23T05:32:58;100006.84;;;6.10;100.00
10668;BME280;5382;42.136;24.796;2023-02-23T05:35:25;100010.13;;;6.14;100.00
10668;BME280;5382;42.136;24.796;2023-02-23T05:37:52;100013.63;;;6.15;100.00
10668;BME280;5382;42.136;24.796;2023-02-23T05:40:19;100015.38;;;6.14;100.00
10668;BME280;5382;42.136;24.796;2023-02-23T05:42:47;100016.00;;;6.19;100.00
10668;BME280;5382;42.136;24.796;2023-02-23T05:45:14;100017.22;;;6.29;100.00
10668;BME280;5382;42.136;24.796;2023-02-23T05:47:40;100021.63;;;6.29;100.00
10668;BME280;5382;42.136;24.796;2023-02-23T05:50:09;100032.16;;;6.29;100.00
10668;BME280;5382;42.136;24.796;2023-02-23T05:52:37;100011.00;;;6.15;100.00
10668;BME280;5382;42.136;24.796;2023-02-23T05:55:07;100041.09;;;6.42;100.00
10668;BME280;5382;42.136;24.796;2023-02-23T05:57:34;100044.53;;;6.60;100.00
10668;BME280;5382;42.136;24.796;2023-02-23T06:00:04;100048.69;;;6.64;100.00
10668;BME280;5382;42.136;24.796;2023-02-23T06:02:31;100047.16;;;6.60;100.00
10668;BME280;5382;42.136;24.796;2023-02-23T06:04:58;100049.00;;;6.58;100.00
10668;BME280;5382;42.136;24.796;2023-02-23T06:07:25;100053.72;;;6.69;100.00
10668;BME280;5382;42.136;24.796;2023-02-23T06:09:52;100057.03;;;6.72;100.00
10668;BME280;5382;42.136;24.796;2023-02-23T06:12:19;100066.34;;;6.45;100.00
10668;BME280;5382;42.136;24.796;2023-02-23T06:14:45;100056.09;;;6.40;100.00
10668;BME280;5382;42.136;24.796;2023-02-23T06:17:14;100029.31;;;6.16;100.00
10668;BME280;5382;42.136;24.796;2023-02-23T06:19:40;100073.13;;;6.33;100.00
10668;BME280;5382;42.136;24.796;2023-02-23T06:22:07;100067.50;;;6.57;100.00
10668;BME280;5382;42.136;24.796;2023-02-23T06:24:34;99944.72;;;5.92;100.00
10668;BME280;5382;42.136;24.796;2023-02-23T06:27:01;100051.81;;;6.55;100.00
10668;BME280;5382;42.136;24.796;2023-02-23T06:29:28;100062.63;;;6.66;100.00
10668;BME280;5382;42.136;24.796;2023-02-23T06:31:55;100066.41;;;6.61;100.00
10668;BME280;5382;42.136;24.796;2023-02-23T06:34:23;100067.41;;;6.58;100.00
10668;BME280;5382;42.136;24.796;2023-02-23T06:36:50;100065.94;;;6.70;100.00
10668;BME280;5382;42.136;24.796;2023-02-23T06:39:17;99946.81;;;6.03;100.00
10668;BME280;5382;42.136;24.796;2023-02-23T06:41:44;100060.09;;;6.81;100.00
10668;BME280;5382;42.136;24.796;2023-02-23T06:44:10;100068.06;;;6.79;100.00
10668;BME280;5382;42.136;24.796;2023-02-23T06:46:37;100058.28;;;6.81;100.00
10668;BME280;5382;42.136;24.796;2023-02-23T06:49:04;100069.28;;;7.05;100.00
10668;BME280;5382;42.136;24.796;2023-02-23T06:51:32;100067.91;;;6.98;100.00
10668;BME280;5382;42.136;24.796;2023-02-23T06:53:59;100075.22;;;7.09;100.00
10668;BME280;5382;42.136;24.796;2023-02-23T06:56:26;100074.75;;;7.18;100.00
10668;BME280;5382;42.136;24.796;2023-02-23T06:58:52;100056.63;;;7.12;100.00
10668;BME280;5382;42.136;24.796;2023-02-23T07:01:19;100080.78;;;7.36;100.00
10668;BME280;5382;42.136;24.796;2023-02-23T07:03:46;100080.59;;;7.39;100.00
10668;BME280;5382;42.136;24.796;2023-02-23T07:06:13;100056.22;;;7.19;100.00
10668;BME280;5382;42.136;24.796;2023-02-23T07:08:41;100034.31;;;7.19;100.00
10668;BME280;5382;42.136;24.796;2023-02-23T07:11:10;100059.94;;;7.47;100.00
10668;BME280;5382;42.136;24.796;2023-02-23T07:13:38;100065.78;;;7.68;100.00
10668;BME280;5382;42.136;24.796;2023-02-23T07:16:05;100077.69;;;7.90;100.00
10668;BME280;5382;42.136;24.796;2023-02-23T07:18:32;100080.28;;;7.75;100.00
10668;BME280;5382;42.136;24.796;2023-02-23T07:20:59;100031.22;;;7.58;100.00
10668;BME280;5382;42.136;24.796;2023-02-23T07:23:25;100039.22;;;7.57;100.00
10668;BME280;5382;42.136;24.796;2023-02-23T07:25:54;99994.50;;;7.09;100.00
10668;BME280;5382;42.136;24.796;2023-02-23T07:28:25;100085.84;;;8.01;100.00
10668;BME280;5382;42.136;24.796;2023-02-23T07:30:54;100064.38;;;7.77;100.00
10668;BME280;5382;42.136;24.796;2023-02-23T07:33:21;100083.47;;;7.96;100.00
10668;BME280;5382;42.136;24.796;2023-02-23T07:35:48;100079.28;;;8.08;100.00
10668;BME280;5382;42.136;24.796;2023-02-23T07:38:15;100087.47;;;8.18;100.00
10668;BME280;5382;42.136;24.796;2023-02-23T07:40:42;100071.59;;;8.34;100.00
10668;BME280;5382;42.136;24.796;2023-02-23T07:43:10;100083.81;;;8.50;100.00
10668;BME280;5382;42.136;24.796;2023-02-23T07:45:37;100085.16;;;8.58;100.00
10668;BME280;5382;42.136;24.796;2023-02-23T07:48:04;100078.47;;;8.52;100.00
10668;BME280;5382;42.136;24.796;2023-02-23T07:50:31;100062.25;;;8.58;100.00
10668;BME280;5382;42.136;24.796;2023-02-23T07:52:57;100082.88;;;8.66;100.00
10668;BME280;5382;42.136;24.796;2023-02-23T07:55:25;100083.63;;;8.82;100.00
10668;BME280;5382;42.136;24.796;2023-02-23T07:57:52;100089.84;;;8.95;100.00
10668;BME280;5382;42.136;24.796;2023-02-23T08:00:20;100085.50;;;9.09;100.00
10668;BME280;5382;42.136;24.796;2023-02-23T08:02:50;100060.88;;;9.08;100.00
10668;BME280;5382;42.136;24.796;2023-02-23T08:05:18;100080.19;;;9.23;100.00
10668;BME280;5382;42.136;24.796;2023-02-23T08:07:45;100078.41;;;9.24;100.00
10668;BME280;5382;42.136;24.796;2023-02-23T08:10:12;100075.94;;;9.35;100.00
10668;BME280;5382;42.136;24.796;2023-02-23T08:12:39;100061.56;;;9.39;100.00
10668;BME280;5382;42.136;24.796;2023-02-23T08:15:06;100066.72;;;9.55;100.00
10668;BME280;5382;42.136;24.796;2023-02-23T08:17:35;100071.25;;;9.80;100.00
10668;BME280;5382;42.136;24.796;2023-02-23T08:20:02;100036.66;;;9.70;100.00
10668;BME280;5382;42.136;24.796;2023-02-23T08:22:30;100055.75;;;10.01;100.00
10668;BME280;5382;42.136;24.796;2023-02-23T08:24:57;100066.44;;;9.99;100.00
10668;BME280;5382;42.136;24.796;2023-02-23T08:27:24;100069.22;;;10.11;100.00
10668;BME280;5382;42.136;24.796;2023-02-23T08:29:54;100037.38;;;9.99;100.00
10668;BME280;5382;42.136;24.796;2023-02-23T08:32:21;100062.72;;;10.29;100.00
10668;BME280;5382;42.136;24.796;2023-02-23T08:34:49;100075.41;;;10.50;100.00
10668;BME280;5382;42.136;24.796;2023-02-23T08:37:16;100068.22;;;10.64;100.00
10668;BME280;5382;42.136;24.796;2023-02-23T08:39:43;100041.75;;;10.64;100.00
10668;BME280;5382;42.136;24.796;2023-02-23T08:42:09;100073.09;;;10.70;100.00
10668;BME280;5382;42.136;24.796;2023-02-23T08:44:36;100069.66;;;10.94;100.00
10668;BME280;5382;42.136;24.796;2023-02-23T08:47:03;100064.31;;;11.20;100.00
10668;BME280;5382;42.136;24.796;2023-02-23T08:49:30;100065.25;;;11.31;100.00
10668;BME280;5382;42.136;24.796;2023-02-23T08:51:59;100073.81;;;11.35;100.00
10668;BME280;5382;42.136;24.796;2023-02-23T08:54:26;100076.75;;;11.43;100.00
10668;BME280;5382;42.136;24.796;2023-02-23T08:56:54;100056.78;;;11.50;100.00
10668;BME280;5382;42.136;24.796;2023-02-23T08:59:21;100075.63;;;11.58;100.00
10668;BME280;5382;42.136;24.796;2023-02-23T09:01:48;100078.06;;;11.62;100.00
10668;BME280;5382;42.136;24.796;2023-02-23T09:04:14;100067.53;;;11.73;100.00
10668;BME280;5382;42.136;24.796;2023-02-23T09:06:43;100071.16;;;11.96;100.00
10668;BME280;5382;42.136;24.796;2023-02-23T09:09:12;100069.72;;;12.03;100.00
10668;BME280;5382;42.136;24.796;2023-02-23T09:11:39;100076.06;;;12.25;100.00
10668;BME280;5382;42.136;24.796;2023-02-23T09:14:06;100071.75;;;12.46;100.00
10668;BME280;5382;42.136;24.796;2023-02-23T09:16:33;100069.22;;;12.44;100.00
10668;BME280;5382;42.136;24.796;2023-02-23T09:19:00;100063.63;;;12.36;100.00
10668;BME280;5382;42.136;24.796;2023-02-23T09:21:27;100066.34;;;12.48;100.00
10668;BME280;5382;42.136;24.796;2023-02-23T09:23:55;100058.47;;;12.46;100.00
10668;BME280;5382;42.136;24.796;2023-02-23T09:26:24;100060.78;;;12.51;100.00
10668;BME280;5382;42.136;24.796;2023-02-23T09:28:53;100057.31;;;12.73;100.00
10668;BME280;5382;42.136;24.796;2023-02-23T09:31:22;100058.66;;;12.78;100.00
10668;BME280;5382;42.136;24.796;2023-02-23T09:33:49;100041.72;;;12.79;100.00
10668;BME280;5382;42.136;24.796;2023-02-23T09:36:18;100029.91;;;12.95;100.00
10668;BME280;5382;42.136;24.796;2023-02-23T09:38:47;99979.84;;;12.68;100.00
10668;BME280;5382;42.136;24.796;2023-02-23T09:41:52;100057.16;;;13.30;100.00
10668;BME280;5382;42.136;24.796;2023-02-23T09:44:28;100018.78;;;13.01;100.00
10668;BME280;5382;42.136;24.796;2023-02-23T09:47:09;100050.41;;;13.26;100.00
10668;BME280;5382;42.136;24.796;2023-02-23T09:49:39;100047.47;;;13.41;100.00
10668;BME280;5382;42.136;24.796;2023-02-23T09:52:15;100047.63;;;13.71;100.00
10668;BME280;5382;42.136;24.796;2023-02-23T09:54:44;100035.19;;;13.72;100.00
10668;BME280;5382;42.136;24.796;2023-02-23T09:57:15;100049.31;;;13.72;100.00
10668;BME280;5382;42.136;24.796;2023-02-23T09:59:43;100046.19;;;13.67;100.00
10668;BME280;5382;42.136;24.796;2023-02-23T10:02:20;99996.03;;;13.63;100.00
10668;BME280;5382;42.136;24.796;2023-02-23T10:04:50;100041.13;;;13.96;100.00
10668;BME280;5382;42.136;24.796;2023-02-23T10:07:22;100031.50;;;14.05;100.00
10668;BME280;5382;42.136;24.796;2023-02-23T10:10:00;100025.34;;;14.05;100.00
10668;BME280;5382;42.136;24.796;2023-02-23T10:12:34;100030.22;;;14.21;100.00
10668;BME280;5382;42.136;24.796;2023-02-23T10:15:15;100011.13;;;14.36;100.00
10668;BME280;5382;42.136;24.796;2023-02-23T10:17:52;100018.44;;;14.44;100.00
10668;BME280;5382;42.136;24.796;2023-02-23T10:20:27;100023.88;;;14.64;100.00
10668;BME280;5382;42.136;24.796;2023-02-23T10:23:03;100022.28;;;14.51;100.00
10668;BME280;5382;42.136;24.796;2023-02-23T10:25:35;100011.09;;;14.57;100.00
10668;BME280;5382;42.136;24.796;2023-02-23T10:28:09;100017.59;;;14.65;100.00
10668;BME280;5382;42.136;24.796;2023-02-23T10:30:39;100022.97;;;14.74;100.00
10668;BME280;5382;42.136;24.796;2023-02-23T10:33:14;99999.00;;;14.74;100.00
10668;BME280;5382;42.136;24.796;2023-02-23T10:35:44;99987.91;;;14.79;100.00
10668;BME280;5382;42.136;24.796;2023-02-23T10:38:20;99990.22;;;14.93;100.00
10668;BME280;5382;42.136;24.796;2023-02-23T10:40:50;99998.09;;;15.04;100.00
10668;BME280;5382;42.136;24.796;2023-02-23T10:43:20;99993.09;;;15.21;100.00
10668;BME280;5382;42.136;24.796;2023-02-23T10:45:49;99989.19;;;15.44;99.85
10668;BME280;5382;42.136;24.796;2023-02-23T10:48:19;99986.38;;;15.36;100.00
10668;BME280;5382;42.136;24.796;2023-02-23T10:50:48;99965.03;;;15.36;100.00
10668;BME280;5382;42.136;24.796;2023-02-23T10:53:18;99981.59;;;15.40;100.00
10668;BME280;5382;42.136;24.796;2023-02-23T10:56:00;99975.41;;;15.59;99.14
10668;BME280;5382;42.136;24.796;2023-02-23T10:58:29;99983.56;;;15.96;98.76
10668;BME280;5382;42.136;24.796;2023-02-23T11:00:58;99981.13;;;16.60;91.64
10668;BME280;5382;42.136;24.796;2023-02-23T11:03:29;99973.28;;;17.13;83.69
10668;BME280;5382;42.136;24.796;2023-02-23T11:05:57;99981.97;;;17.61;80.13
10668;BME280;5382;42.136;24.796;2023-02-23T11:08:27;99966.81;;;17.87;77.97
10668;BME280;5382;42.136;24.796;2023-02-23T11:10:57;99961.69;;;17.58;78.73
10668;BME280;5382;42.136;24.796;2023-02-23T11:13:26;99969.63;;;17.86;77.15
10668;BME280;5382;42.136;24.796;2023-02-23T11:16:00;99959.16;;;18.53;71.70
10668;BME280;5382;42.136;24.796;2023-02-23T11:18:29;99956.34;;;18.89;69.23
10668;BME280;5382;42.136;24.796;2023-02-23T11:20:56;99953.25;;;19.34;67.25
10668;BME280;5382;42.136;24.796;2023-02-23T11:23:24;99948.78;;;19.76;64.83
10668;BME280;5382;42.136;24.796;2023-02-23T11:25:55;99943.81;;;20.29;60.50
10668;BME280;5382;42.136;24.796;2023-02-23T11:28:29;99943.50;;;20.23;62.16
10668;BME280;5382;42.136;24.796;2023-02-23T11:31:01;99934.78;;;20.30;61.14
10668;BME280;5382;42.136;24.796;2023-02-23T11:33:31;99944.63;;;21.47;58.14
10668;BME280;5382;42.136;24.796;2023-02-23T11:36:14;99944.00;;;21.37;55.85
10668;BME280;5382;42.136;24.796;2023-02-23T11:38:41;99937.34;;;21.02;57.60
10668;BME280;5382;42.136;24.796;2023-02-23T11:41:18;99943.97;;;20.91;57.99
10668;BME280;5382;42.136;24.796;2023-02-23T11:43:47;99930.88;;;21.11;56.63
10668;BME280;5382;42.136;24.796;2023-02-23T11:46:17;99924.81;;;22.01;53.49
10668;BME280;5382;42.136;24.796;2023-02-23T11:48:48;99926.84;;;21.84;54.38
10668;BME280;5382;42.136;24.796;2023-02-23T11:51:23;99930.16;;;21.71;56.34
10668;BME280;5382;42.136;24.796;2023-02-23T11:53:50;99927.41;;;21.94;54.51
10668;BME280;5382;42.136;24.796;2023-02-23T11:56:19;99932.94;;;21.55;55.54
10668;BME280;5382;42.136;24.796;2023-02-23T11:58:48;99933.00;;;21.70;55.47
10668;BME280;5382;42.136;24.796;2023-02-23T12:01:22;99945.38;;;21.33;55.12
10668;BME280;5382;42.136;24.796;2023-02-23T12:03:51;99952.38;;;20.88;57.14
10668;BME280;5382;42.136;24.796;2023-02-23T12:06:27;99937.09;;;20.33;61.20
10668;BME280;5382;42.136;24.796;2023-02-23T12:08:59;99933.75;;;20.31;63.64
10668;BME280;5382;42.136;24.796;2023-02-23T12:11:31;99927.97;;;20.58;59.58
10668;BME280;5382;42.136;24.796;2023-02-23T12:14:02;99940.56;;;20.97;60.28
10668;BME280;5382;42.136;24.796;2023-02-23T12:16:37;99947.13;;;21.26;59.93
10668;BME280;5382;42.136;24.796;2023-02-23T12:19:13;99946.38;;;21.40;58.29
10668;BME280;5382;42.136;24.796;2023-02-23T12:21:47;99932.94;;;21.32;58.90
10668;BME280;5382;42.136;24.796;2023-02-23T12:24:22;99939.44;;;21.46;58.07
10668;BME280;5382;42.136;24.796;2023-02-23T12:26:57;99932.09;;;21.31;60.95
10668;BME280;5382;42.136;24.796;2023-02-23T12:29:29;99940.44;;;21.68;59.38
10668;BME280;5382;42.136;24.796;2023-02-23T12:32:00;99939.09;;;21.87;58.52
10668;BME280;5382;42.136;24.796;2023-02-23T12:34:31;99932.94;;;21.78;59.63
10668;BME280;5382;42.136;24.796;2023-02-23T12:37:12;99953.25;;;21.34;62.38
10668;BME280;5382;42.136;24.796;2023-02-23T12:39:45;99944.16;;;22.05;59.05
10668;BME280;5382;42.136;24.796;2023-02-23T12:42:16;99933.88;;;21.85;59.00
10668;BME280;5382;42.136;24.796;2023-02-23T12:44:49;99946.47;;;22.08;58.07
10668;BME280;5382;42.136;24.796;2023-02-23T12:47:25;99961.41;;;22.33;57.01
10668;BME280;5382;42.136;24.796;2023-02-23T12:49:58;99926.28;;;21.51;59.12
10668;BME280;5382;42.136;24.796;2023-02-23T12:52:42;99945.59;;;21.54;59.51
10668;BME280;5382;42.136;24.796;2023-02-23T12:55:12;99959.13;;;21.15;62.73
10668;BME280;5382;42.136;24.796;2023-02-23T12:57:44;99947.50;;;21.69;60.36
10668;BME280;5382;42.136;24.796;2023-02-23T13:00:36;99950.03;;;21.85;58.98
10668;BME280;5382;42.136;24.796;2023-02-23T13:06:11;99958.41;;;21.21;62.95
10668;BME280;5382;42.136;24.796;2023-02-23T13:09:02;99959.84;;;21.40;64.21
10668;BME280;5382;42.136;24.796;2023-02-23T13:11:53;99965.53;;;21.45;64.25
10668;BME280;5382;42.136;24.796;2023-02-23T13:14:28;99971.47;;;21.01;65.87
10668;BME280;5382;42.136;24.796;2023-02-23T13:17:07;99956.09;;;20.23;70.23
10668;BME280;5382;42.136;24.796;2023-02-23T13:19:41;99959.31;;;19.61;75.06
10668;BME280;5382;42.136;24.796;2023-02-23T13:22:25;99950.03;;;19.06;78.05
10668;BME280;5382;42.136;24.796;2023-02-23T13:24:57;99960.47;;;18.75;81.45
10668;BME280;5382;42.136;24.796;2023-02-23T13:27:32;99970.13;;;19.77;75.82
10668;BME280;5382;42.136;24.796;2023-02-23T13:29:59;99977.53;;;18.74;80.28
10668;BME280;5382;42.136;24.796;2023-02-23T13:32:30;99973.72;;;19.44;78.63